Time;durP1;ratioP1;P1;durP2;ratioP2;P2;SDS_P1;SDS_P2;PMS_P1;PMS_P2;Temp;Humidity;BMP_temperature;BMP_pressure;BME280_temperature;BME280_humidity;BME280_pressure;Samples;Min_cycle;Max_cycle;Signal;HPM_P1;HPM_P2
2021/12/28 00:06:04;;;;;;;175.68;11.98;;;2.40;99.90;;;;;;21074313;28;20039;-49
2021/12/28 00:26:14;;;;;;;564.97;27.55;;;2.40;99.90;;;;;;21074307;28;20043;-50
2021/12/28 00:36:16;;;;;;;295.17;17.63;;;2.40;99.90;;;;;;21072050;28;20108;-50
2021/12/28 00:46:19;;;;;;;576.17;27.77;;;2.40;99.90;;;;;;21070638;28;20632;-49
2021/12/28 00:56:21;;;;;;;478.42;23.90;;;2.30;99.90;;;;;;21070682;28;20051;-51
2021/12/28 01:06:24;;;;;;;392.40;21.80;;;2.30;99.90;;;;;;21069709;28;20032;-49
2021/12/28 01:16:27;;;;;;;580.28;25.70;;;2.30;99.90;;;;;;21070094;28;20052;-49
2021/12/28 01:26:31;;;;;;;846.70;42.25;;;2.30;99.90;;;;;;21068285;28;20035;-49
2021/12/28 01:36:34;;;;;;;820.05;46.38;;;2.30;99.90;;;;;;21067577;28;20036;-50
2021/12/28 01:46:37;;;;;;;508.38;27.83;;;2.20;99.90;;;;;;21068051;28;20036;-50
2021/12/28 01:56:44;;;;;;;700.65;41.17;;;2.20;99.90;;;;;;21066689;28;20545;-51
2021/12/28 02:06:48;;;;;;;604.53;33.92;;;2.20;99.90;;;;;;21066025;28;20040;-50
2021/12/28 02:16:50;;;;;;;367.80;24.00;;;2.20;99.90;;;;;;21065492;28;20077;-49
2021/12/28 02:26:53;;;;;;;457.80;25.98;;;2.20;99.90;;;;;;21065189;28;20032;-49
2021/12/28 02:36:56;;;;;;;888.38;49.72;;;2.20;99.90;;;;;;21065486;28;20522;-52
2021/12/28 02:47:02;;;;;;;753.33;45.15;;;2.30;99.90;;;;;;21064554;28;20035;-50
2021/12/28 02:57:05;;;;;;;373.98;21.08;;;2.20;99.90;;;;;;21064094;28;20361;-50
2021/12/28 03:07:08;;;;;;;177.65;13.02;;;2.10;99.90;;;;;;21063709;28;20048;-51
2021/12/28 03:17:11;;;;;;;3.10;1.50;;;2.00;99.90;;;;;;21077366;28;20552;-49
2021/12/28 03:27:13;;;;;;;2.95;1.48;;;2.10;99.90;;;;;;21077684;28;20058;-53
2021/12/28 03:37:17;;;;;;;3.80;1.52;;;2.10;99.90;;;;;;21076802;28;20032;-49
2021/12/28 03:47:19;;;;;;;3.00;1.65;;;2.10;99.90;;;;;;21077336;28;20036;-50
2021/12/28 03:57:24;;;;;;;3.75;1.88;;;2.10;99.90;;;;;;21075225;28;20040;-49
2021/12/28 04:07:27;;;;;;;4.10;1.88;;;2.10;99.90;;;;;;21074280;28;20066;-50
2021/12/28 04:17:31;;;;;;;4.13;2.20;;;2.10;99.90;;;;;;21073786;28;20040;-49
2021/12/28 04:27:34;;;;;;;2.30;1.27;;;2.10;99.90;;;;;;21072490;28;20040;-51
2021/12/28 04:37:38;;;;;;;2.65;1.30;;;2.10;99.90;;;;;;21071960;28;20036;-51
2021/12/28 04:47:42;;;;;;;338.50;17.88;;;2.10;99.90;;;;;;21070882;28;20106;-51
2021/12/28 04:57:45;;;;;;;90.40;8.43;;;2.10;99.90;;;;;;21070327;28;20055;-49
2021/12/28 05:07:48;;;;;;;6.68;3.20;;;2.10;99.90;;;;;;21070978;28;20089;-54
2021/12/28 05:17:50;;;;;;;3.85;2.33;;;2.10;99.90;;;;;;21068649;28;20081;-49
2021/12/28 05:27:53;;;;;;;3.35;1.50;;;2.00;99.90;;;;;;21068505;28;20360;-49
2021/12/28 05:37:55;;;;;;;2.55;1.10;;;2.00;99.90;;;;;;21067368;28;20028;-49
2021/12/28 05:47:58;;;;;;;1.40;0.88;;;2.00;99.90;;;;;;21066869;28;20036;-49
2021/12/28 05:58:01;;;;;;;208.52;12.65;;;2.10;99.90;;;;;;21066497;28;20225;-51
2021/12/28 06:08:04;;;;;;;15.25;5.15;;;2.00;99.90;;;;;;21068470;28;20044;-50
2021/12/28 06:18:07;;;;;;;7.97;4.38;;;2.00;99.90;;;;;;21066083;28;20044;-52
2021/12/28 06:28:09;;;;;;;9.00;4.85;;;2.00;99.90;;;;;;21065342;28;20101;-51
2021/12/28 06:38:12;;;;;;;9.85;4.63;;;2.00;99.90;;;;;;21065895;28;20047;-51
2021/12/28 06:48:14;;;;;;;10.55;4.97;;;2.00;99.90;;;;;;21057437;28;20105;-50
2021/12/28 06:58:17;;;;;;;9.52;5.30;;;1.90;99.90;;;;;;21080382;28;20036;-51
2021/12/28 07:08:20;;;;;;;10.30;5.47;;;1.90;99.90;;;;;;21079584;28;20044;-51
2021/12/28 07:18:23;;;;;;;8.07;4.45;;;2.00;99.90;;;;;;21078561;28;20059;-50
2021/12/28 07:28:25;;;;;;;8.73;4.53;;;2.10;99.90;;;;;;21077796;28;20036;-51
2021/12/28 07:38:28;;;;;;;8.60;4.80;;;2.20;99.90;;;;;;21077425;28;20036;-49
2021/12/28 07:48:31;;;;;;;5.72;3.30;;;2.40;99.90;;;;;;21076819;28;20036;-51
2021/12/28 07:58:33;;;;;;;6.30;3.55;;;2.60;99.90;;;;;;21075210;28;20036;-51
2021/12/28 08:08:36;;;;;;;128.18;10.60;;;2.90;99.90;;;;;;21075040;28;20101;-50
2021/12/28 08:18:39;;;;;;;12.43;6.38;;;3.10;99.90;;;;;;21075722;28;20048;-50
2021/12/28 08:28:42;;;;;;;9.45;4.97;;;2.90;99.90;;;;;;21073065;28;20036;-50
2021/12/28 08:38:45;;;;;;;7.07;3.88;;;2.90;99.90;;;;;;21055430;28;20032;-50
2021/12/28 08:48:48;;;;;;;8.77;4.70;;;2.60;99.90;;;;;;21071416;28;20032;-50
2021/12/28 08:58:51;;;;;;;4.53;2.85;;;2.90;99.90;;;;;;21070193;28;20036;-50
2021/12/28 09:08:54;;;;;;;3.42;2.20;;;3.20;99.90;;;;;;21069046;28;20047;-51
2021/12/28 09:18:57;;;;;;;3.95;2.20;;;3.70;99.90;;;;;;21069126;28;20040;-50
2021/12/28 09:29:00;;;;;;;4.68;2.60;;;4.00;99.90;;;;;;21068260;28;20031;-49
2021/12/28 09:39:03;;;;;;;2.00;1.30;;;3.80;99.90;;;;;;21067627;28;20487;-51
2021/12/28 09:49:05;;;;;;;2.08;0.85;;;4.20;99.90;;;;;;21067048;28;20156;-53
2021/12/28 09:59:09;;;;;;;2.28;1.08;;;4.50;99.90;;;;;;21066559;28;20036;-49
2021/12/28 10:09:21;;;;;;;2.55;1.48;;;4.70;99.90;;;;;;21066203;28;20120;-51
2021/12/28 10:19:38;;;;;;;5.22;3.35;;;4.90;99.90;;;;;;21069126;28;20044;-52
2021/12/28 10:29:42;;;;;;;7.22;3.95;;;4.30;99.90;;;;;;21082394;28;20040;-49
2021/12/28 10:39:47;;;;;;;10.57;5.32;;;3.90;99.90;;;;;;21082254;28;20460;-53
2021/12/28 10:49:49;;;;;;;10.57;6.50;;;4.00;99.90;;;;;;21082053;28;20036;-49
2021/12/28 10:59:52;;;;;;;12.90;7.25;;;4.20;99.90;;;;;;21081508;28;20036;-49
2021/12/28 11:10:02;;;;;;;14.38;8.20;;;3.90;99.90;;;;;;21079144;28;20093;-50
2021/12/28 11:20:07;;;;;;;11.18;6.68;;;3.70;99.90;;;;;;21078202;28;20036;-51
2021/12/28 11:30:15;;;;;;;10.13;5.93;;;3.80;99.90;;;;;;21077106;28;20039;-49
2021/12/28 11:40:18;;;;;;;7.65;4.32;;;4.10;99.90;;;;;;21076543;28;20510;-49
2021/12/28 11:50:21;;;;;;;7.90;4.90;;;4.20;99.90;;;;;;21075821;28;20059;-50
2021/12/28 12:00:23;;;;;;;8.90;5.70;;;4.30;99.90;;;;;;21075150;28;20031;-52
2021/12/28 12:10:30;;;;;;;3.70;2.42;;;4.70;99.90;;;;;;21074490;28;20044;-50
2021/12/28 12:20:36;;;;;;;4.93;2.20;;;4.90;99.90;;;;;;21073881;28;20116;-50
2021/12/28 12:30:50;;;;;;;4.38;2.55;;;4.90;99.90;;;;;;21073836;28;20032;-50
2021/12/28 12:41:14;;;;;;;9.95;5.93;;;5.00;99.90;;;;;;21037853;28;20066;-51
2021/12/28 12:51:19;;;;;;;6.43;4.05;;;5.00;99.90;;;;;;21071477;28;20384;-51
2021/12/28 13:01:27;;;;;;;14.45;8.65;;;4.80;99.90;;;;;;21071389;28;20096;-49
2021/12/28 13:11:31;;;;;;;33.85;10.88;;;4.70;99.90;;;;;;21069989;28;20064;-50
2021/12/28 13:21:35;;;;;;;26.88;12.05;;;4.40;99.90;;;;;;21068641;28;20082;-50
2021/12/28 13:31:38;;;;;;;15.10;9.40;;;4.20;99.90;;;;;;21068250;28;20032;-51
2021/12/28 13:41:51;;;;;;;162.20;18.75;;;4.10;99.90;;;;;;21067712;28;20040;-50
2021/12/28 13:51:54;;;;;;;12.82;7.63;;;3.90;99.90;;;;;;21067543;28;20377;-52
2021/12/28 14:01:57;;;;;;;21.30;12.38;;;3.70;99.90;;;;;;21066861;28;20040;-51
2021/12/28 14:12:00;;;;;;;14.85;8.48;;;3.70;99.90;;;;;;21066810;28;20044;-51
2021/12/28 14:22:09;;;;;;;701.85;45.45;;;3.70;99.90;;;;;;21066079;28;20040;-49
2021/12/28 14:32:14;;;;;;;910.17;52.00;;;3.30;99.90;;;;;;21065455;28;20036;-51
2021/12/28 14:42:38;;;;;;;22.27;13.27;;;2.90;99.90;;;;;;21066271;28;20061;-50
2021/12/28 14:52:44;;;;;;;274.70;24.02;;;2.60;99.90;;;;;;21064651;28;20032;-50
2021/12/28 15:02:48;;;;;;;711.85;45.55;;;2.60;99.90;;;;;;21064636;28;20031;-53
2021/12/28 15:12:51;;;;;;;381.20;26.02;;;2.50;99.90;;;;;;21076832;28;20098;-50
2021/12/28 15:22:54;;;;;;;127.90;15.65;;;2.30;99.90;;;;;;21078416;28;20063;-50
2021/12/28 15:32:58;;;;;;;22.85;8.55;;;2.20;99.90;;;;;;21077832;28;20040;-50
2021/12/28 15:43:02;;;;;;;13.40;7.53;;;2.30;99.90;;;;;;21077473;28;20540;-49
2021/12/28 15:53:05;;;;;;;18.65;9.38;;;2.30;99.90;;;;;;21076229;28;20073;-50
2021/12/28 16:03:07;;;;;;;14.63;7.47;;;2.30;99.90;;;;;;21058384;28;20036;-50
2021/12/28 16:13:10;;;;;;;9.38;4.53;;;2.20;99.90;;;;;;21074673;28;20060;-52
2021/12/28 16:23:13;;;;;;;7.93;4.10;;;2.30;99.90;;;;;;21073598;28;20048;-53
2021/12/28 16:33:17;;;;;;;6.18;3.78;;;2.30;99.90;;;;;;21072689;28;20040;-50
2021/12/28 16:43:19;;;;;;;5.93;2.85;;;2.50;99.90;;;;;;21072009;28;20044;-49
2021/12/28 16:53:23;;;;;;;3.20;2.10;;;2.50;99.90;;;;;;21071400;28;20032;-49
2021/12/28 17:03:25;;;;;;;2.55;1.30;;;2.60;99.90;;;;;;21070910;28;20040;-49
2021/12/28 17:13:29;;;;;;;5.90;2.80;;;2.70;99.90;;;;;;21069555;28;20503;-49
2021/12/28 17:23:31;;;;;;;4.32;1.83;;;2.70;99.90;;;;;;21068728;28;20059;-49
2021/12/28 17:33:35;;;;;;;4.20;2.33;;;2.70;99.90;;;;;;21067642;28;20032;-49
2021/12/28 17:43:40;;;;;;;4.65;2.55;;;2.80;99.90;;;;;;21067599;28;20135;-50
2021/12/28 17:53:44;;;;;;;6.05;3.38;;;2.70;99.90;;;;;;21066767;28;20036;-50
2021/12/28 18:03:47;;;;;;;8.65;5.05;;;2.80;99.90;;;;;;21067421;28;20434;-51
2021/12/28 18:13:50;;;;;;;12.48;6.75;;;2.80;99.90;;;;;;21066006;28;20048;-50
2021/12/28 18:23:52;;;;;;;9.27;5.55;;;2.70;99.90;;;;;;21065234;28;20670;-50
2021/12/28 18:33:55;;;;;;;11.98;6.20;;;2.60;99.90;;;;;;21065419;28;20040;-49
2021/12/28 18:44:02;;;;;;;9.57;5.43;;;2.60;99.90;;;;;;21073821;28;20062;-50
2021/12/28 18:54:07;;;;;;;13.30;6.95;;;2.40;99.90;;;;;;21080845;28;20035;-52
2021/12/28 19:04:12;;;;;;;15.90;8.40;;;2.40;99.90;;;;;;21063141;28;20035;-50
2021/12/28 19:14:16;;;;;;;13.05;7.38;;;2.50;99.90;;;;;;21079198;28;20369;-50
2021/12/28 19:24:18;;;;;;;15.48;8.35;;;2.40;99.90;;;;;;21078307;28;20086;-50
2021/12/28 19:34:21;;;;;;;15.25;8.10;;;2.20;99.90;;;;;;21077723;28;20388;-49
2021/12/28 19:44:27;;;;;;;13.02;7.57;;;2.20;99.90;;;;;;21077032;28;20102;-51
2021/12/28 19:54:29;;;;;;;11.35;6.82;;;2.20;99.90;;;;;;21075462;28;20050;-51
2021/12/28 20:04:34;;;;;;;14.30;7.18;;;2.30;99.90;;;;;;21075499;28;20028;-53
2021/12/28 20:14:36;;;;;;;17.83;9.38;;;2.30;99.90;;;;;;21074272;28;20047;-50
2021/12/28 20:24:39;;;;;;;14.40;7.68;;;2.30;99.90;;;;;;21074368;28;20035;-50
2021/12/28 20:34:42;;;;;;;20.77;10.50;;;2.20;99.90;;;;;;21072691;28;20040;-49
2021/12/28 20:44:46;;;;;;;19.23;10.23;;;2.20;99.90;;;;;;21071192;28;20044;-50
2021/12/28 20:54:53;;;;;;;17.60;9.85;;;2.10;99.90;;;;;;21071859;28;20537;-49
2021/12/28 21:04:56;;;;;;;11.27;6.10;;;2.10;99.90;;;;;;21070205;28;20144;-51
2021/12/28 21:14:59;;;;;;;10.25;6.05;;;2.00;99.90;;;;;;21067469;28;20070;-49
2021/12/28 21:25:05;;;;;;;15.50;7.50;;;1.90;99.90;;;;;;21068326;28;20070;-50
2021/12/28 21:35:09;;;;;;;20.30;10.52;;;1.70;99.90;;;;;;21068140;28;20062;-49
2021/12/28 21:45:16;;;;;;;19.35;9.40;;;1.50;99.90;;;;;;21067548;28;20040;-50
2021/12/28 21:55:20;;;;;;;30.73;10.68;;;1.50;99.90;;;;;;21066524;28;20036;-49
2021/12/28 22:05:27;;;;;;;17.60;8.93;;;1.40;99.90;;;;;;21067057;28;20459;-50
2021/12/28 22:15:29;;;;;;;19.30;9.82;;;1.30;99.90;;;;;;21073027;28;20357;-51
2021/12/28 22:25:32;;;;;;;19.88;9.15;;;1.10;99.90;;;;;;21093412;28;20089;-51
2021/12/28 22:35:36;;;;;;;18.13;9.07;;;0.90;99.90;;;;;;21093935;28;20082;-50
2021/12/28 22:45:39;;;;;;;9.32;4.82;;;0.50;99.90;;;;;;21092647;28;20086;-49
2021/12/28 22:55:44;;;;;;;8.80;4.90;;;0.30;99.90;;;;;;21092091;28;20093;-51
2021/12/28 23:05:49;;;;;;;14.40;7.65;;;0.60;99.90;;;;;;21091908;28;20548;-50
2021/12/28 23:15:51;;;;;;;11.75;6.35;;;0.40;99.90;;;;;;21091645;28;20188;-49
2021/12/28 23:25:56;;;;;;;7.18;3.20;;;0.20;99.90;;;;;;21071197;28;20036;-49
2021/12/28 23:35:59;;;;;;;18.13;8.32;;;0.00;99.90;;;;;;20993633;28;20376;-50
2021/12/28 23:46:02;;;;;;;12.60;5.32;;;-0.10;99.90;;;;;;20992809;28;20086;-49
2021/12/28 23:56:05;;;;;;;7.30;4.00;;;-0.10;99.90;;;;;;20993854;28;20742;-53
